NCAR-RAP Real-Time Weather Data

Output produced by METARs form (23 June 2018  19:39 UTC)
found at http://weather.rap.ucar.edu/surface/
 
RJEB 230700Z 25011G22KT 200V300 9999 FEW040 SCT150 BKN/// 26/12 Q0994
RJEB 230600Z 24011KT 210V290 9999 FEW050 SCT140 28/13 Q0994
RJEB 230500Z 25020G32KT 220V280 9999 FEW040 BKN150 28/12 Q0994
RJEB 230400Z 26019G30KT 230V290 9999 FEW040 SCT140 BKN160 27/11 Q0994
RJEB 230300Z 24019G29KT 220V280 9999 FEW040 BKN140 29/13 Q0993
RJEB 230200Z 25016KT 9999 FEW040 SCT120 BKN150 25/11 Q0994
RJEB 230100Z 24010KT 9999 FEW040 BKN130 25/12 Q0995
RJEB 230000Z 25010KT 220V280 9999 FEW050 BKN110 23/13 Q0996
RJEB 220700Z 25006KT 210V280 9999 FEW030 SCT050 BKN120 21/14 Q0996
RJEB 220600Z 26011KT 9999 FEW030 SCT050 BKN100 21/14 Q0995
RJEB 220500Z 24011KT 210V300 9999 FEW030 SCT050 BKN100 22/14 Q0996
RJEB 220400Z VRB03KT 9999 -SHRA FEW020 SCT040 BKN080 18/15 Q0996
RJEB 220300Z 25015KT 9999 -SHRA FEW020 SCT040 BKN050 21/14 Q0996
RJEB 220200Z 28014KT 9999 FEW030 BKN045 22/14 Q0996
RJEB 220100Z 24012KT 200V290 9999 FEW030 SCT050 BKN130 22/14 Q0996
RJEB 220000Z 25012G22KT 9999 FEW030 SCT050 BKN100 20/14 Q0996